x

Folly Island, Sc (fbis1) Weather Station

2:00am - Fri 19th Sep 2014 All times are EDT. -4 hours from GMT.

  • Wind
    9mph, 10mph gusts
  • Air Temp 80°f
  • Sea Pressure 1015.6mb
  • Folly Island, Sc
  • Folly Island, Sc

More Historic Weather Station data

Upgrade to MSW Pro to gain access to the past 30 days of data for over 8000 Wavebouys and Weather Stations around the globe.

Join Pro

Comparision Forecast

View Surf forecast
   
Fri 09/19 2:00am 9 10 mph 1015.6mb 80f
1:00am 8 9 mph 1015.7mb 80f
12:00am 13 15 mph 1015.8mb 80f
Thu 09/18 11:00pm 11 13 mph 1015.7mb 80f
10:00pm 14 15 mph 1015.4mb 79f
9:00pm 10 11 mph 1015mb 80f
8:00pm 10 13 mph 1014.6mb 80f
7:00pm 9 11 mph 1014.1mb 80f
6:00pm 5 6 mph 1013.8mb 80f
5:00pm 6 7 mph 1013.7mb 81f
4:00pm 8 9 mph 1013.7mb 81f
3:00pm 8
mph
1013.8mb 81f
2:00pm 6 8 mph 1014.3mb 81f
1:00pm 5 7 mph 1014.7mb 81f
12:00pm 5 6 mph 1014.9mb 80f
11:00am 6 7 mph 1015mb 78f
10:00am 8 9 mph 1014.8mb 76f
9:00am 8 9 mph 1014.4mb 76f
8:00am 2 3 mph 1013.6mb 75f
7:00am 5 7 mph 1013.2mb 74f
6:00am 8 9 mph 1012.9mb 74f
5:00am 5 6 mph 1012.6mb 75f
4:00am 6 8 mph 1012.4mb 75f
3:00am 2 5 mph 1012.7mb 74f
2:00am 2 3 mph 1012.8mb 74f
1:00am 3
mph
1013.4mb 74f
12:00am 3 5 mph 1013.5mb 75f
Wed 09/17 11:00pm 9 10 mph 1013.5mb 75f
10:00pm 3 5 mph 1013.2mb 77f
9:00pm  -  1 mph 1013mb 78f
8:00pm 2 3 mph 1012.7mb 79f
7:00pm 6 7 mph 1011.6mb 79f
6:00pm 5 7 mph 1012.2mb 79f
5:00pm 8 9 mph 1011.9mb 79f
4:00pm 6 8 mph 1012.2mb 79f
3:00pm 7 8 mph 1012.4mb 79f
2:00pm 11 14 mph 1013.1mb 80f
1:00pm 16 20 mph 1013.7mb 79f
12:00pm 11 13 mph 1013.9mb 81f
11:00am 7 9 mph 1013.9mb 80f
10:00am 2 5 mph 1013.7mb 80f
9:00am 3 5 mph 1013.3mb 78f
8:00am 5 6 mph 1013.7mb 74f
7:00am 11 13 mph 1013.7mb 74f
6:00am 15 18 mph 1013.7mb 73f
5:00am 6 7 mph 1013.2mb 75f
4:00am 7 8 mph 1013.3mb 76f
3:00am 2
mph
1013.3mb 78f
2:00am 2 5 mph 1014mb 78f
1:00am 5 6 mph 1014.5mb 78f
12:00am 7 8 mph 1014.6mb 77f
Tue 09/16 11:00pm 6 8 mph 1014.1mb 76f
10:00pm 3 5 mph 1014.4mb 74f
9:00pm 6 8 mph 1015.7mb 74f
8:00pm 3
mph
1015.2mb 75f
7:00pm  -  2 mph 1014.8mb 76f
6:00pm 5
mph
1015.1mb 76f
5:00pm 9 11 mph 1014.9mb 76f
4:00pm 6 8 mph 1015.1mb 80f
3:00pm 6 7 mph 1015.5mb 79f
2:00pm 10
mph
1016.4mb 78f
1:00pm 2
mph
1017.1mb 77f
12:00pm 2
mph
1017.4mb 81f
11:00am 3 5 mph 1018.2mb 80f
10:00am 1 2 mph 1018.1mb 80f
9:00am 2 3 mph 1017.9mb 78f
8:00am 3 6 mph 1018.1mb 76f
7:00am 2
mph
1017.9mb 75f
6:00am 3
mph
1018.2mb 75f
5:00am 3 5 mph 1018.4mb 75f
4:00am 3 5 mph 1018.1mb 76f
3:00am 2
mph
1018.2mb 76f
2:00am 3
mph
1018.8mb 76f
1:00am  -  1 mph 1019.2mb 76f
12:00am 3 5 mph 1020.1mb 76f
Mon 09/15 11:00pm  -  1 mph 1020.3mb 77f
10:00pm 9 10 mph 1020.9mb 79f
9:00pm 6 8 mph 1020.7mb 80f
8:00pm 8 10 mph 1020.2mb 79f
7:00pm 8 9 mph 1019.9mb 79f
6:00pm 10 11 mph 1020mb 79f
5:00pm 10 11 mph 1019.9mb 80f
4:00pm 10 11 mph 1020mb 80f
3:00pm 8 9 mph 1020.5mb 80f
2:00pm 8 9 mph 1021.2mb 81f
1:00pm 6 7 mph 1021.7mb 81f
12:00pm 6 7 mph 1022.3mb 79f
11:00am 6 7 mph 1022.7mb 78f
10:00am 6 8 mph 1022.8mb 73f
9:00am 8 9 mph 1022.6mb 72f
8:00am 6 8 mph 1022.3mb 72f